createdAt,value
2023-01-29T00:02:20.380Z,71.30
2023-01-29T00:06:06.606Z,71.30
2023-01-29T00:09:48.235Z,71.30
2023-01-29T00:13:29.875Z,71.30
2023-01-29T00:17:11.568Z,71.30
2023-01-29T00:20:53.277Z,71.30
2023-01-29T00:24:35.278Z,71.30
2023-01-29T00:28:16.884Z,71.30
2023-01-29T00:31:58.915Z,71.30
2023-01-29T00:35:41.368Z,71.30
2023-01-29T00:39:31.375Z,71.30
2023-01-29T00:43:36.742Z,71.30
2023-01-29T00:47:30.905Z,71.30
2023-01-29T00:51:12.601Z,71.30
2023-01-29T00:54:55.421Z,71.30
2023-01-29T00:58:37.026Z,71.30
2023-01-29T01:02:37.940Z,71.30
2023-01-29T01:06:19.555Z,71.30
2023-01-29T01:10:19.623Z,71.30
2023-01-29T01:14:02.165Z,71.30
2023-01-29T01:17:43.821Z,71.30
2023-01-29T01:21:25.473Z,71.30
2023-01-29T01:25:07.242Z,71.30
2023-01-29T01:28:48.845Z,71.30
2023-01-29T01:32:30.589Z,71.30
2023-01-29T01:36:13.726Z,71.30
2023-01-29T01:39:57.852Z,71.30
2023-01-29T01:43:48.868Z,71.30
2023-01-29T01:47:33.689Z,71.30
2023-01-29T01:51:16.722Z,71.30
2023-01-29T01:54:59.558Z,71.30
2023-01-29T01:58:43.608Z,71.40
2023-01-29T02:02:44.551Z,71.40
2023-01-29T02:06:44.666Z,71.40
2023-01-29T02:10:27.637Z,71.30
2023-01-29T02:14:09.327Z,71.30
2023-01-29T02:17:51.042Z,71.30
2023-01-29T02:21:32.640Z,71.30
2023-01-29T02:25:23.293Z,71.30
2023-01-29T02:29:22.441Z,71.30
2023-01-29T02:33:12.910Z,71.30
2023-01-29T02:37:01.303Z,71.40
2023-01-29T02:40:49.250Z,71.30
2023-01-29T02:44:33.873Z,71.40
2023-01-29T02:48:20.645Z,71.30
2023-01-29T02:52:02.229Z,71.30
2023-01-29T02:55:43.817Z,71.30
2023-01-29T02:59:28.395Z,71.40
2023-01-29T03:03:10.049Z,71.30
2023-01-29T03:06:54.834Z,71.30
2023-01-29T03:10:56.931Z,71.30
2023-01-29T03:14:58.430Z,71.30
2023-01-29T03:18:46.023Z,71.40
2023-01-29T03:22:27.880Z,71.30
2023-01-29T03:26:28.366Z,71.30
2023-01-29T03:30:30.062Z,71.30
2023-01-29T03:34:24.043Z,71.30
2023-01-29T03:38:07.361Z,71.30
2023-01-29T03:41:53.762Z,71.30
2023-01-29T03:45:42.817Z,71.30
2023-01-29T03:49:39.151Z,71.30
2023-01-29T03:53:27.663Z,71.30
2023-01-29T03:57:11.541Z,71.30
2023-01-29T04:00:56.179Z,71.30
2023-01-29T04:04:39.095Z,71.30
2023-01-29T04:08:23.363Z,71.30
2023-01-29T04:12:09.120Z,71.30
2023-01-29T04:15:53.235Z,71.30
2023-01-29T04:19:35.056Z,71.40
2023-01-29T04:23:20.508Z,71.30
2023-01-29T04:27:31.271Z,71.40
2023-01-29T04:31:13.680Z,71.40
2023-01-29T04:35:04.502Z,71.40
2023-01-29T04:39:05.396Z,71.40
2023-01-29T04:42:52.696Z,71.30
2023-01-29T04:46:39.283Z,71.30
2023-01-29T04:50:29.171Z,71.30
2023-01-29T04:54:20.174Z,71.40
2023-01-29T04:58:25.115Z,71.40
2023-01-29T05:02:07.825Z,71.40
2023-01-29T05:05:50.731Z,71.40
2023-01-29T05:09:33.384Z,71.40
2023-01-29T05:13:15.566Z,71.40
2023-01-29T05:16:59.259Z,71.50
2023-01-29T05:20:42.964Z,71.40
2023-01-29T05:24:25.418Z,71.40
2023-01-29T05:28:08.325Z,71.40
2023-01-29T05:31:50.029Z,71.40
2023-01-29T05:35:31.816Z,71.50
2023-01-29T05:39:13.401Z,71.50
2023-01-29T05:42:55.093Z,71.40
2023-01-29T05:46:37.460Z,71.40
2023-01-29T05:50:19.300Z,71.40
2023-01-29T05:54:01.097Z,71.50
2023-01-29T05:57:42.693Z,71.40
2023-01-29T06:01:25.654Z,71.40
2023-01-29T06:05:07.602Z,71.40
2023-01-29T06:08:49.291Z,71.40
2023-01-29T06:12:30.950Z,71.40
2023-01-29T06:16:13.613Z,71.40
2023-01-29T06:19:55.305Z,71.50
2023-01-29T06:23:37.308Z,71.50
2023-01-29T06:27:19.003Z,71.50
2023-01-29T06:31:23.366Z,71.50
2023-01-29T06:35:06.162Z,71.50
2023-01-29T06:38:48.107Z,71.50
2023-01-29T06:42:29.710Z,71.50
2023-01-29T06:46:11.351Z,71.50
2023-01-29T06:49:52.986Z,71.50
2023-01-29T06:53:35.397Z,71.50
2023-01-29T06:57:17.014Z,71.50
2023-01-29T07:01:33.468Z,71.60
2023-01-29T07:05:17.430Z,71.50
2023-01-29T07:08:59.062Z,71.60
2023-01-29T07:12:40.659Z,71.60
2023-01-29T07:16:23.344Z,71.60
2023-01-29T07:20:05.980Z,71.50
2023-01-29T07:23:47.597Z,71.50
2023-01-29T07:27:29.199Z,71.50
2023-01-29T07:31:12.122Z,71.50
2023-01-29T07:34:53.863Z,71.60
2023-01-29T07:38:35.466Z,71.60
2023-01-29T07:42:17.067Z,71.60
2023-01-29T07:46:01.729Z,71.50
2023-01-29T07:49:43.398Z,71.60
2023-01-29T07:53:25.005Z,71.60
2023-01-29T07:57:06.622Z,71.50
2023-01-29T08:00:48.250Z,71.60
2023-01-29T08:04:29.897Z,71.50
2023-01-29T08:08:11.518Z,71.60
2023-01-29T08:11:53.730Z,71.60
2023-01-29T08:15:38.070Z,71.60
2023-01-29T08:19:20.743Z,71.60
2023-01-29T08:23:04.450Z,71.60
2023-01-29T08:26:46.066Z,71.60
2023-01-29T08:30:29.091Z,71.60
2023-01-29T08:34:10.700Z,71.60
2023-01-29T08:37:59.581Z,71.60
2023-01-29T08:41:41.399Z,71.60
2023-01-29T08:45:23.010Z,71.60
2023-01-29T08:49:04.618Z,71.60
2023-01-29T08:52:46.568Z,71.60
2023-01-29T08:56:28.270Z,71.60
2023-01-29T09:00:10.648Z,71.60
2023-01-29T09:03:52.967Z,71.60
2023-01-29T09:07:34.610Z,71.60
2023-01-29T09:11:16.247Z,71.60
2023-01-29T09:14:57.856Z,71.60
2023-01-29T09:18:39.479Z,71.60
2023-01-29T09:22:21.151Z,71.60
2023-01-29T09:26:02.818Z,71.60
2023-01-29T09:29:44.434Z,71.60
2023-01-29T09:33:26.247Z,71.60
2023-01-29T09:37:07.866Z,71.60
2023-01-29T09:40:55.310Z,71.60
2023-01-29T09:44:46.107Z,71.60
2023-01-29T09:48:30.274Z,71.60
2023-01-29T09:52:14.966Z,71.60
2023-01-29T09:56:01.071Z,72.20
2023-01-29T09:59:42.739Z,71.60
2023-01-29T10:03:24.352Z,71.60
2023-01-29T10:07:18.224Z,71.60
2023-01-29T10:11:08.751Z,71.60
2023-01-29T10:14:59.687Z,71.60
2023-01-29T10:18:59.983Z,71.60
2023-01-29T10:23:01.937Z,71.60
2023-01-29T10:26:43.600Z,71.70
2023-01-29T10:30:31.127Z,71.70
2023-01-29T10:34:14.939Z,71.70
2023-01-29T10:37:58.741Z,71.70
2023-01-29T10:41:40.342Z,71.80
2023-01-29T10:45:29.691Z,71.80
2023-01-29T10:49:29.435Z,71.80
2023-01-29T10:53:29.900Z,71.80
2023-01-29T10:57:30.482Z,71.80
2023-01-29T11:01:12.578Z,71.80
2023-01-29T11:04:54.264Z,71.80
2023-01-29T11:08:45.056Z,71.80
2023-01-29T11:12:31.050Z,71.80
2023-01-29T11:16:12.781Z,71.80
2023-01-29T11:19:58.087Z,71.80
2023-01-29T11:23:39.673Z,71.80
2023-01-29T11:27:26.538Z,71.80
2023-01-29T11:31:26.193Z,71.90
2023-01-29T11:35:10.997Z,71.90
2023-01-29T11:39:14.960Z,71.90
2023-01-29T11:43:10.983Z,71.90
2023-01-29T11:46:54.237Z,71.90
2023-01-29T11:50:35.886Z,71.90
2023-01-29T11:54:19.709Z,71.90
2023-01-29T11:58:04.379Z,71.90
2023-01-29T12:01:46.011Z,71.90
2023-01-29T12:05:27.803Z,72.00
2023-01-29T12:09:11.216Z,72.00
2023-01-29T12:13:03.592Z,72.00
2023-01-29T12:16:53.773Z,71.90
2023-01-29T12:20:37.315Z,71.90
2023-01-29T12:24:35.633Z,71.90
2023-01-29T12:28:17.225Z,71.90
2023-01-29T12:32:14.611Z,72.00
2023-01-29T12:36:01.816Z,72.10
2023-01-29T12:39:43.581Z,72.10
2023-01-29T12:43:46.937Z,72.00
2023-01-29T12:47:34.055Z,72.10
2023-01-29T12:51:17.504Z,72.10
2023-01-29T12:55:03.913Z,72.10
2023-01-29T12:58:47.263Z,72.10
2023-01-29T13:02:28.862Z,72.10
2023-01-29T13:06:12.152Z,72.10
2023-01-29T13:09:55.683Z,72.20
2023-01-29T13:13:42.646Z,72.10
2023-01-29T13:17:32.414Z,72.10
2023-01-29T13:21:16.119Z,72.20
2023-01-29T13:25:04.791Z,72.10
2023-01-29T13:28:48.095Z,72.10
2023-01-29T13:32:30.864Z,72.10
2023-01-29T13:36:18.304Z,72.20
2023-01-29T13:40:01.063Z,72.20
2023-01-29T13:43:43.225Z,72.20
2023-01-29T13:47:29.294Z,72.20
2023-01-29T13:51:17.735Z,72.20
2023-01-29T13:55:02.301Z,72.20
2023-01-29T13:58:43.902Z,72.20
2023-01-29T14:02:27.032Z,72.30
2023-01-29T14:06:08.726Z,72.30
2023-01-29T14:09:50.452Z,72.30
2023-01-29T14:13:35.291Z,72.30
2023-01-29T14:17:18.066Z,72.20
2023-01-29T14:21:01.350Z,72.30
2023-01-29T14:24:43.119Z,72.30
2023-01-29T14:28:26.247Z,72.30
2023-01-29T14:32:07.878Z,72.30
2023-01-29T14:35:50.402Z,72.30
2023-01-29T14:39:42.181Z,72.30
2023-01-29T14:43:24.074Z,72.40
2023-01-29T14:47:05.678Z,72.40
2023-01-29T14:50:48.971Z,72.40
2023-01-29T14:54:33.646Z,72.40
2023-01-29T14:58:22.550Z,72.40
2023-01-29T15:02:12.100Z,72.40
2023-01-29T15:05:54.082Z,72.40
2023-01-29T15:09:50.988Z,72.40
2023-01-29T15:13:44.152Z,72.40
2023-01-29T15:17:30.808Z,72.40
2023-01-29T15:21:14.361Z,72.40
2023-01-29T15:25:07.330Z,72.40
2023-01-29T15:29:03.543Z,72.50
2023-01-29T15:32:46.545Z,72.40
2023-01-29T15:36:29.925Z,72.40
2023-01-29T15:40:15.797Z,72.40
2023-01-29T15:43:57.691Z,72.50
2023-01-29T15:47:39.300Z,72.40
2023-01-29T15:51:22.260Z,72.50
2023-01-29T15:55:06.374Z,72.50
2023-01-29T15:58:48.914Z,72.50
2023-01-29T16:02:43.067Z,72.50
2023-01-29T16:06:24.867Z,72.50
2023-01-29T16:10:07.153Z,72.60
2023-01-29T16:13:49.786Z,72.50
2023-01-29T16:17:35.536Z,72.60
2023-01-29T16:21:37.463Z,72.60
2023-01-29T16:25:19.595Z,72.60
2023-01-29T16:29:05.937Z,72.60
2023-01-29T16:32:47.543Z,72.70
2023-01-29T16:36:29.287Z,72.60
2023-01-29T16:40:15.633Z,72.60
2023-01-29T16:44:13.297Z,72.60
2023-01-29T16:48:02.365Z,72.60
2023-01-29T16:51:43.970Z,72.70
2023-01-29T16:55:25.789Z,72.60
2023-01-29T16:59:12.975Z,72.60
2023-01-29T17:03:03.460Z,72.70
2023-01-29T17:06:47.234Z,72.60
2023-01-29T17:10:29.647Z,72.70
2023-01-29T17:14:17.008Z,72.70
2023-01-29T17:17:58.697Z,72.60
2023-01-29T17:21:40.336Z,73.30
2023-01-29T17:25:22.119Z,72.70
2023-01-29T17:29:03.800Z,72.70
2023-01-29T17:32:47.236Z,72.70
2023-01-29T17:36:29.183Z,72.70
2023-01-29T17:40:29.786Z,72.70
2023-01-29T17:44:11.434Z,72.70
2023-01-29T17:47:53.114Z,72.70
2023-01-29T17:51:34.753Z,72.70
2023-01-29T17:55:17.077Z,72.70
2023-01-29T17:58:58.918Z,72.70
2023-01-29T18:02:40.516Z,72.70
2023-01-29T18:06:27.108Z,72.70
2023-01-29T18:10:27.028Z,72.70
2023-01-29T18:14:14.241Z,72.70
2023-01-29T18:17:56.159Z,72.80
2023-01-29T18:21:37.771Z,72.70
2023-01-29T18:25:19.883Z,72.80
2023-01-29T18:29:01.773Z,72.80
2023-01-29T18:32:43.368Z,72.70
2023-01-29T18:36:25.061Z,72.70
2023-01-29T18:40:07.043Z,72.70
2023-01-29T18:43:48.904Z,72.70
2023-01-29T18:47:30.559Z,72.80
2023-01-29T18:51:12.330Z,72.80
2023-01-29T18:54:54.045Z,72.80
2023-01-29T18:58:37.134Z,72.70
2023-01-29T19:02:19.468Z,72.70
2023-01-29T19:06:02.671Z,72.70
2023-01-29T19:09:46.450Z,72.70
2023-01-29T19:13:28.782Z,72.70
2023-01-29T19:17:10.532Z,72.80
2023-01-29T19:20:52.701Z,72.80
2023-01-29T19:24:38.785Z,72.80
2023-01-29T19:28:20.413Z,72.70
2023-01-29T19:32:02.040Z,72.80
2023-01-29T19:35:44.401Z,72.80
2023-01-29T19:39:29.870Z,73.40
2023-01-29T19:43:15.233Z,72.80
2023-01-29T19:46:56.844Z,72.80
2023-01-29T19:50:39.879Z,72.80
2023-01-29T19:54:22.005Z,72.80
2023-01-29T19:58:04.726Z,72.80
2023-01-29T20:01:46.391Z,72.80
2023-01-29T20:05:28.033Z,72.80
2023-01-29T20:09:09.637Z,72.80
2023-01-29T20:12:51.377Z,72.80
2023-01-29T20:16:33.001Z,72.80
2023-01-29T20:20:16.251Z,72.80
2023-01-29T20:23:58.287Z,72.80
2023-01-29T20:27:39.907Z,72.90
2023-01-29T20:31:21.569Z,72.90
2023-01-29T20:35:03.851Z,72.90
2023-01-29T20:38:45.474Z,72.80
2023-01-29T20:42:27.077Z,72.90
2023-01-29T20:46:09.265Z,72.90
2023-01-29T20:49:50.984Z,72.90
2023-01-29T20:53:32.619Z,72.90
2023-01-29T20:57:14.320Z,72.90
2023-01-29T21:00:56.006Z,72.90
2023-01-29T21:04:37.666Z,72.90
2023-01-29T21:08:19.269Z,72.90
2023-01-29T21:12:01.065Z,72.90
2023-01-29T21:15:42.868Z,72.90
2023-01-29T21:19:24.518Z,72.90
2023-01-29T21:23:07.331Z,72.90
2023-01-29T21:26:50.011Z,72.90
2023-01-29T21:30:31.756Z,73.00
2023-01-29T21:34:13.393Z,73.00
2023-01-29T21:37:55.006Z,72.90
2023-01-29T21:41:55.047Z,72.90
2023-01-29T21:45:36.828Z,73.00
2023-01-29T21:49:18.463Z,73.00
2023-01-29T21:53:00.518Z,73.00
2023-01-29T21:56:42.131Z,73.00
2023-01-29T22:00:23.823Z,73.00
2023-01-29T22:04:07.680Z,73.00
2023-01-29T22:07:49.621Z,73.00
2023-01-29T22:11:31.470Z,73.00
2023-01-29T22:15:13.619Z,73.00
2023-01-29T22:18:55.322Z,73.00
2023-01-29T22:22:36.906Z,73.00
2023-01-29T22:26:18.957Z,73.00
2023-01-29T22:30:01.150Z,73.70
2023-01-29T22:33:43.156Z,73.00
2023-01-29T22:37:24.742Z,73.10
2023-01-29T22:41:06.426Z,73.00
2023-01-29T22:44:48.548Z,73.10
2023-01-29T22:48:30.622Z,73.20
2023-01-29T22:52:12.444Z,73.10
2023-01-29T22:55:57.098Z,73.10
2023-01-29T22:59:38.886Z,73.10
2023-01-29T23:03:20.803Z,73.10
2023-01-29T23:07:02.463Z,73.10
2023-01-29T23:10:44.193Z,73.20
2023-01-29T23:14:25.809Z,73.10
2023-01-29T23:18:07.528Z,73.10
2023-01-29T23:21:49.147Z,73.10
2023-01-29T23:25:49.147Z,73.20
2023-01-29T23:29:30.756Z,73.20
2023-01-29T23:33:12.412Z,73.20
2023-01-29T23:36:54.005Z,73.10
2023-01-29T23:40:35.602Z,73.10
2023-01-29T23:44:17.251Z,73.20
2023-01-29T23:47:58.875Z,73.20
2023-01-29T23:51:40.556Z,73.20
2023-01-29T23:55:22.164Z,73.20
2023-01-29T23:59:03.830Z,73.20
